createdAt,value
2022-09-06T00:03:08.514Z,98156.38
2022-09-06T00:08:10.433Z,98152.38
2022-09-06T00:13:13.249Z,98152.38
2022-09-06T00:18:14.805Z,98148.50
2022-09-06T00:23:16.396Z,98152.34
2022-09-06T00:28:19.713Z,98142.63
2022-09-06T00:33:21.306Z,98145.28
2022-09-06T00:38:22.898Z,98155.38
2022-09-06T00:43:25.256Z,98146.91
2022-09-06T00:48:27.077Z,98152.34
2022-09-06T00:53:30.575Z,98160.25
2022-09-06T00:58:32.186Z,98156.81
2022-09-06T01:03:35.202Z,98160.66
2022-09-06T01:09:10.968Z,98170.97
2022-09-06T01:14:19.816Z,98166.31
2022-09-06T01:19:47.386Z,98165.31
2022-09-06T01:25:10.261Z,98159.66
2022-09-06T01:30:14.492Z,98158.25
2022-09-06T01:35:40.905Z,98155.63
2022-09-06T01:40:42.489Z,98148.56
2022-09-06T01:46:12.858Z,98157.63
2022-09-06T01:51:33.775Z,98148.16
2022-09-06T01:56:41.415Z,98137.66
2022-09-06T02:02:05.711Z,98138.25
2022-09-06T02:07:20.773Z,98133.81
2022-09-06T02:12:25.266Z,98139.84
2022-09-06T02:17:31.986Z,98132.78
2022-09-06T02:22:40.330Z,98138.22
2022-09-06T02:27:42.051Z,98138.81
2022-09-06T02:32:50.653Z,98145.28
2022-09-06T02:37:52.518Z,98148.53
2022-09-06T02:42:54.179Z,98152.72
2022-09-06T02:47:55.770Z,98152.34
2022-09-06T02:53:09.908Z,98140.47
2022-09-06T02:58:12.187Z,98145.53
2022-09-06T03:03:13.944Z,98144.91
2022-09-06T03:08:17.146Z,98157.84
2022-09-06T03:13:19.599Z,98144.31
2022-09-06T03:18:21.197Z,98135.84
2022-09-06T03:23:25.560Z,98123.69
2022-09-06T03:28:27.846Z,98116.03
2022-09-06T03:33:29.537Z,98093.59
2022-09-06T03:38:31.201Z,98095.88
2022-09-06T03:43:32.953Z,98086.38
2022-09-06T03:48:34.538Z,98074.06
2022-09-06T03:53:36.140Z,98077.06
2022-09-06T03:58:37.829Z,98085.16
2022-09-06T04:03:40.246Z,98084.50
2022-09-06T04:08:42.051Z,98091.38
2022-09-06T04:13:43.634Z,98093.63
2022-09-06T04:18:45.257Z,98091.22
2022-09-06T04:23:46.794Z,98086.19
2022-09-06T04:28:48.423Z,98085.56
2022-09-06T04:33:50.068Z,98095.44
2022-09-06T04:38:51.707Z,98097.66
2022-09-06T04:43:53.354Z,98103.09
2022-09-06T04:48:55.436Z,98094.81
2022-09-06T04:53:57.076Z,98098.66
2022-09-06T04:58:58.681Z,98092.59
2022-09-06T05:04:00.225Z,98095.22
2022-09-06T05:09:02.026Z,98108.31
2022-09-06T05:14:06.400Z,98110.56
2022-09-06T05:19:08.995Z,98106.25
2022-09-06T05:24:11.315Z,98100.16
2022-09-06T05:29:12.975Z,98101.91
2022-09-06T05:34:15.098Z,98098.56
2022-09-06T05:39:19.160Z,98101.31
2022-09-06T05:44:20.726Z,98094.91
2022-09-06T05:49:22.323Z,98099.22
2022-09-06T05:54:24.424Z,98092.97
2022-09-06T05:59:26.520Z,98094.03
2022-09-06T06:04:28.074Z,98098.31
2022-09-06T06:09:29.650Z,98085.63
2022-09-06T06:14:31.457Z,98076.91
2022-09-06T06:19:33.068Z,98074.34
2022-09-06T06:24:35.172Z,98085.47
2022-09-06T06:29:36.806Z,98082.53
2022-09-06T06:34:38.374Z,98083.59
2022-09-06T06:39:40.154Z,98099.16
2022-09-06T06:44:41.737Z,98097.25
2022-09-06T06:49:43.319Z,98095.34
2022-09-06T06:54:44.899Z,98089.03
2022-09-06T06:59:46.459Z,98088.56
2022-09-06T07:04:48.031Z,98086.41
2022-09-06T07:15:13.938Z,98085.19
2022-09-06T07:20:16.303Z,98085.50
2022-09-06T07:25:21.505Z,98081.47
2022-09-06T07:30:23.374Z,98087.31
2022-09-06T07:35:26.531Z,98085.19
2022-09-06T07:40:30.533Z,98083.56
2022-09-06T07:45:32.085Z,98082.16
2022-09-06T07:50:49.764Z,98085.06
2022-09-06T07:55:52.147Z,98078.34
2022-09-06T08:00:53.801Z,98086.03
2022-09-06T08:06:11.151Z,98090.09
2022-09-06T08:11:13.091Z,98094.84
2022-09-06T08:16:16.898Z,98095.78
2022-09-06T08:21:19.084Z,98088.41
2022-09-06T08:26:22.748Z,98092.44
2022-09-06T08:31:24.488Z,98088.66
2022-09-06T08:36:32.614Z,98087.84
2022-09-06T08:41:41.784Z,98091.00
2022-09-06T08:46:57.550Z,98086.13
2022-09-06T08:52:30.331Z,98074.97
2022-09-06T08:58:00.851Z,98072.09
2022-09-06T09:03:17.158Z,98066.84
2022-09-06T09:08:27.508Z,98078.06
2022-09-06T09:13:35.548Z,98073.19
2022-09-06T09:18:39.808Z,98065.94
2022-09-06T09:23:41.407Z,98058.09
2022-09-06T09:29:27.476Z,98036.72
2022-09-06T09:34:35.580Z,98023.03
2022-09-06T09:39:39.432Z,98026.06
2022-09-06T09:44:44.915Z,98011.75
2022-09-06T09:49:46.474Z,98007.59
2022-09-06T09:54:50.723Z,98006.63
2022-09-06T09:59:58.264Z,97998.06
2022-09-06T10:05:25.537Z,97995.78
2022-09-06T10:10:30.290Z,98008.84
2022-09-06T10:15:58.852Z,98007.97
2022-09-06T10:21:13.393Z,98004.81
2022-09-06T10:26:31.015Z,97990.72
2022-09-06T10:31:35.754Z,97994.84
2022-09-06T10:36:44.811Z,97979.13
2022-09-06T10:42:05.891Z,97999.31
2022-09-06T10:47:11.738Z,97994.78
2022-09-06T10:52:29.982Z,98005.63
2022-09-06T11:09:13.134Z,97996.28
2022-09-06T11:14:15.618Z,97990.63
2022-09-06T11:19:27.538Z,97991.72
2022-09-06T11:24:47.886Z,97996.75
2022-09-06T11:29:56.569Z,97984.00
2022-09-06T11:35:01.188Z,97974.09
2022-09-06T11:40:26.737Z,97947.44
2022-09-06T11:45:49.392Z,97968.84
2022-09-06T11:50:54.133Z,97980.28
2022-09-06T11:56:02.050Z,98005.56
2022-09-06T12:01:29.841Z,98035.91
2022-09-06T12:06:40.614Z,98047.16
2022-09-06T12:11:46.178Z,98077.94
2022-09-06T12:17:07.177Z,98099.53
2022-09-06T12:22:30.048Z,98083.09
2022-09-06T12:27:39.178Z,98073.63
2022-09-06T12:32:43.969Z,98076.78
2022-09-06T12:37:55.917Z,98081.22
2022-09-06T12:42:58.429Z,98079.66
2022-09-06T12:48:08.977Z,98073.44
2022-09-06T12:53:24.491Z,98083.59
2022-09-06T12:58:29.637Z,98094.16
2022-09-06T13:03:34.246Z,98086.25
2022-09-06T13:08:47.268Z,98089.72
2022-09-06T13:13:54.061Z,98073.09
2022-09-06T13:19:11.708Z,98064.91
2022-09-06T13:24:28.356Z,98062.84
2022-09-06T13:29:32.100Z,98060.75
2022-09-06T13:34:34.295Z,98059.03
2022-09-06T13:39:41.214Z,98060.22
2022-09-06T13:44:42.876Z,98050.56
2022-09-06T13:49:44.507Z,98039.75
2022-09-06T13:54:47.890Z,98037.66
2022-09-06T13:59:49.464Z,98019.25
2022-09-06T14:04:51.201Z,98015.56
2022-09-06T14:09:52.867Z,97993.47
2022-09-06T14:14:54.494Z,97982.16
2022-09-06T14:19:56.141Z,97988.78
2022-09-06T14:24:57.842Z,97987.97
2022-09-06T14:29:59.520Z,97988.13
2022-09-06T14:35:02.074Z,97976.38
2022-09-06T14:40:04.864Z,97965.28
2022-09-06T14:45:07.115Z,97953.06
2022-09-06T14:50:09.240Z,97948.63
2022-09-06T14:55:11.032Z,97949.34
2022-09-06T15:00:13.359Z,97951.44
2022-09-06T15:05:15.067Z,97946.69
2022-09-06T15:10:16.707Z,97938.34
2022-09-06T15:15:18.478Z,97948.13
2022-09-06T15:20:20.772Z,97938.38
2022-09-06T15:25:22.425Z,97941.09
2022-09-06T15:35:43.953Z,97928.91
2022-09-06T15:40:45.775Z,97925.09
2022-09-06T15:45:50.203Z,97915.63
2022-09-06T15:50:52.070Z,97918.69
2022-09-06T15:55:59.181Z,97913.59
2022-09-06T16:01:05.634Z,97899.22
2022-09-06T16:11:36.775Z,97892.75
2022-09-06T16:16:40.547Z,97889.78
2022-09-06T16:21:43.112Z,97892.09
2022-09-06T16:26:46.648Z,97894.50
2022-09-06T16:31:48.390Z,97887.22
2022-09-06T16:36:50.185Z,97888.59
2022-09-06T16:41:51.806Z,97881.00
2022-09-06T16:46:56.041Z,97874.88
2022-09-06T16:51:57.609Z,97875.19
2022-09-06T16:57:01.161Z,97871.72
2022-09-06T17:02:03.186Z,97874.09
2022-09-06T17:07:04.960Z,97876.06
2022-09-06T17:12:06.687Z,97875.19
2022-09-06T17:17:09.921Z,97863.06
2022-09-06T17:22:12.778Z,97859.81
2022-09-06T17:27:14.695Z,97853.66
2022-09-06T17:32:16.394Z,97864.31
2022-09-06T17:37:18.087Z,97865.69
2022-09-06T17:42:19.711Z,97863.00
2022-09-06T17:47:21.368Z,97862.78
2022-09-06T17:52:22.963Z,97858.38
2022-09-06T17:57:25.048Z,97859.97
2022-09-06T18:02:26.729Z,97861.66
2022-09-06T18:07:28.321Z,97865.84
2022-09-06T18:12:30.918Z,97860.28
2022-09-06T18:17:32.615Z,97858.53
2022-09-06T18:22:34.327Z,97862.28
2022-09-06T18:27:35.954Z,97857.66
2022-09-06T18:32:37.770Z,97863.59
2022-09-06T18:37:39.398Z,97863.22
2022-09-06T18:42:44.618Z,97862.22
2022-09-06T18:47:46.230Z,97866.06
2022-09-06T18:52:47.830Z,97867.50
2022-09-06T18:57:49.439Z,97871.31
2022-09-06T19:02:51.138Z,97874.97
2022-09-06T19:07:52.806Z,97873.78
2022-09-06T19:12:54.519Z,97880.47
2022-09-06T19:17:57.020Z,97876.44
2022-09-06T19:22:58.620Z,97875.41
2022-09-06T19:28:00.394Z,97881.69
2022-09-06T19:33:02.010Z,97885.69
2022-09-06T19:38:03.923Z,97869.94
2022-09-06T19:43:05.532Z,97861.84
2022-09-06T19:48:08.163Z,97867.31
2022-09-06T19:53:09.764Z,97856.22
2022-09-06T19:58:11.476Z,97855.03
2022-09-06T20:03:13.142Z,97862.88
2022-09-06T20:08:14.993Z,97856.41
2022-09-06T20:13:16.581Z,97849.97
2022-09-06T20:18:18.510Z,97841.31
2022-09-06T20:23:20.411Z,97837.84
2022-09-06T20:28:21.987Z,97830.38
2022-09-06T20:33:23.686Z,97829.38
2022-09-06T20:38:25.731Z,97823.94
2022-09-06T20:43:27.866Z,97825.91
2022-09-06T20:48:32.244Z,97809.78
2022-09-06T20:53:37.703Z,97806.16
2022-09-06T20:58:40.815Z,97806.97
2022-09-06T21:03:42.992Z,97794.84
2022-09-06T21:08:44.942Z,97794.25
2022-09-06T21:13:52.262Z,97788.81
2022-09-06T21:18:56.654Z,97792.44
2022-09-06T21:24:00.640Z,97788.13
2022-09-06T21:29:03.524Z,97780.06
2022-09-06T21:34:08.532Z,97782.03
2022-09-06T21:39:13.017Z,97776.78
2022-09-06T21:44:14.716Z,97767.72
2022-09-06T21:49:16.469Z,97769.53
2022-09-06T21:54:18.116Z,97774.13
2022-09-06T21:59:19.838Z,97774.69
2022-09-06T22:04:21.430Z,97770.31
2022-09-06T22:09:23.083Z,97770.91
2022-09-06T22:14:24.700Z,97771.25
2022-09-06T22:19:26.542Z,97773.63
2022-09-06T22:24:28.408Z,97780.66
2022-09-06T22:29:30.424Z,97779.63
2022-09-06T22:34:32.253Z,97778.63
2022-09-06T22:39:34.134Z,97775.97
2022-09-06T22:44:36.002Z,97777.94
2022-09-06T22:49:37.817Z,97778.50
2022-09-06T22:54:40.331Z,97755.00
2022-09-06T22:59:42.148Z,97759.78
2022-09-06T23:04:44.006Z,97755.00
2022-09-06T23:09:45.840Z,97765.38
2022-09-06T23:14:47.695Z,97746.28
2022-09-06T23:19:49.467Z,97743.44
2022-09-06T23:24:51.242Z,97732.13
2022-09-06T23:29:53.042Z,97742.41
2022-09-06T23:34:55.864Z,97739.38
2022-09-06T23:39:57.776Z,97729.28
2022-09-06T23:44:59.695Z,97719.38
2022-09-06T23:50:01.588Z,97713.13
2022-09-06T23:55:04.042Z,97720.13
